sensor_id;sensor_type;location;lat;lon;timestamp;P1;durP1;ratioP1;P2;durP2;ratioP2
78368;SDS011;71113;43.092;-89.268;2024-03-02T00:00:09;43.97;;;16.20;;
78368;SDS011;71113;43.092;-89.268;2024-03-02T00:02:42;45.42;;;16.38;;
78368;SDS011;71113;43.092;-89.268;2024-03-02T00:05:12;42.88;;;15.73;;
78368;SDS011;71113;43.092;-89.268;2024-03-02T00:07:43;39.28;;;14.88;;
78368;SDS011;71113;43.092;-89.268;2024-03-02T00:10:13;39.50;;;13.77;;
78368;SDS011;71113;43.092;-89.268;2024-03-02T00:12:42;40.47;;;13.45;;
78368;SDS011;71113;43.092;-89.268;2024-03-02T00:17:55;40.00;;;13.65;;
78368;SDS011;71113;43.092;-89.268;2024-03-02T00:20:21;36.17;;;13.40;;
78368;SDS011;71113;43.092;-89.268;2024-03-02T00:22:51;36.85;;;13.13;;
78368;SDS011;71113;43.092;-89.268;2024-03-02T00:25:17;34.50;;;12.27;;
78368;SDS011;71113;43.092;-89.268;2024-03-02T00:27:47;31.65;;;12.13;;
78368;SDS011;71113;43.092;-89.268;2024-03-02T00:30:32;31.73;;;12.85;;
78368;SDS011;71113;43.092;-89.268;2024-03-02T00:33:21;27.98;;;11.25;;
78368;SDS011;71113;43.092;-89.268;2024-03-02T00:35:47;27.50;;;10.13;;
78368;SDS011;71113;43.092;-89.268;2024-03-02T00:38:14;26.60;;;10.07;;
78368;SDS011;71113;43.092;-89.268;2024-03-02T00:40:41;27.35;;;9.77;;
78368;SDS011;71113;43.092;-89.268;2024-03-02T00:46:05;25.70;;;9.50;;
78368;SDS011;71113;43.092;-89.268;2024-03-02T00:48:31;24.08;;;8.60;;
78368;SDS011;71113;43.092;-89.268;2024-03-02T00:51:01;23.58;;;8.57;;
78368;SDS011;71113;43.092;-89.268;2024-03-02T00:53:30;22.42;;;8.27;;
78368;SDS011;71113;43.092;-89.268;2024-03-02T00:55:58;18.95;;;7.43;;
78368;SDS011;71113;43.092;-89.268;2024-03-02T00:58:27;18.23;;;7.15;;
78368;SDS011;71113;43.092;-89.268;2024-03-02T01:00:53;18.27;;;6.50;;
78368;SDS011;71113;43.092;-89.268;2024-03-02T01:03:19;16.50;;;6.43;;
78368;SDS011;71113;43.092;-89.268;2024-03-02T01:05:45;14.82;;;6.13;;
78368;SDS011;71113;43.092;-89.268;2024-03-02T01:08:11;12.60;;;5.00;;
78368;SDS011;71113;43.092;-89.268;2024-03-02T01:10:37;16.55;;;6.00;;
78368;SDS011;71113;43.092;-89.268;2024-03-02T01:13:03;10.65;;;4.63;;
78368;SDS011;71113;43.092;-89.268;2024-03-02T01:15:29;12.10;;;4.38;;
78368;SDS011;71113;43.092;-89.268;2024-03-02T01:17:55;10.65;;;4.50;;
78368;SDS011;71113;43.092;-89.268;2024-03-02T01:20:21;11.93;;;3.92;;
78368;SDS011;71113;43.092;-89.268;2024-03-02T01:22:47;10.20;;;3.75;;
78368;SDS011;71113;43.092;-89.268;2024-03-02T01:25:13;9.50;;;3.95;;
78368;SDS011;71113;43.092;-89.268;2024-03-02T01:27:39;10.25;;;4.10;;
78368;SDS011;71113;43.092;-89.268;2024-03-02T01:30:06;446.75;;;227.88;;
78368;SDS011;71113;43.092;-89.268;2024-03-02T01:32:32;671.40;;;314.30;;
78368;SDS011;71113;43.092;-89.268;2024-03-02T01:34:58;597.92;;;246.57;;
78368;SDS011;71113;43.092;-89.268;2024-03-02T01:37:24;407.88;;;138.27;;
78368;SDS011;71113;43.092;-89.268;2024-03-02T01:39:50;247.77;;;88.68;;
78368;SDS011;71113;43.092;-89.268;2024-03-02T01:42:16;214.75;;;78.15;;
78368;SDS011;71113;43.092;-89.268;2024-03-02T01:44:42;185.52;;;70.05;;
78368;SDS011;71113;43.092;-89.268;2024-03-02T01:47:08;201.10;;;72.78;;
78368;SDS011;71113;43.092;-89.268;2024-03-02T01:49:34;195.68;;;71.40;;
78368;SDS011;71113;43.092;-89.268;2024-03-02T01:52:00;176.50;;;65.13;;
78368;SDS011;71113;43.092;-89.268;2024-03-02T01:54:26;169.98;;;61.20;;
78368;SDS011;71113;43.092;-89.268;2024-03-02T01:56:52;159.30;;;61.05;;
78368;SDS011;71113;43.092;-89.268;2024-03-02T01:59:18;163.43;;;58.50;;
78368;SDS011;71113;43.092;-89.268;2024-03-02T02:02:04;145.32;;;54.92;;
78368;SDS011;71113;43.092;-89.268;2024-03-02T02:04:30;146.10;;;51.85;;
78368;SDS011;71113;43.092;-89.268;2024-03-02T02:06:56;145.90;;;51.63;;
78368;SDS011;71113;43.092;-89.268;2024-03-02T02:09:22;122.60;;;45.92;;
78368;SDS011;71113;43.092;-89.268;2024-03-02T02:11:50;135.95;;;49.08;;
78368;SDS011;71113;43.092;-89.268;2024-03-02T02:14:16;124.45;;;44.78;;
78368;SDS011;71113;43.092;-89.268;2024-03-02T02:16:42;114.72;;;41.85;;
78368;SDS011;71113;43.092;-89.268;2024-03-02T02:19:08;175.80;;;50.67;;
78368;SDS011;71113;43.092;-89.268;2024-03-02T02:21:34;129.32;;;44.08;;
78368;SDS011;71113;43.092;-89.268;2024-03-02T02:24:00;127.38;;;45.10;;
78368;SDS011;71113;43.092;-89.268;2024-03-02T02:26:29;135.70;;;45.10;;
78368;SDS011;71113;43.092;-89.268;2024-03-02T02:28:55;130.98;;;44.03;;
78368;SDS011;71113;43.092;-89.268;2024-03-02T02:31:21;129.63;;;44.67;;
78368;SDS011;71113;43.092;-89.268;2024-03-02T02:33:47;119.13;;;39.90;;
78368;SDS011;71113;43.092;-89.268;2024-03-02T02:36:13;118.72;;;39.38;;
78368;SDS011;71113;43.092;-89.268;2024-03-02T02:38:40;104.90;;;37.42;;
78368;SDS011;71113;43.092;-89.268;2024-03-02T02:41:09;111.57;;;37.00;;
78368;SDS011;71113;43.092;-89.268;2024-03-02T02:43:35;93.20;;;31.88;;
78368;SDS011;71113;43.092;-89.268;2024-03-02T02:46:02;90.65;;;31.13;;
78368;SDS011;71113;43.092;-89.268;2024-03-02T02:48:28;84.78;;;26.52;;
78368;SDS011;71113;43.092;-89.268;2024-03-02T02:50:54;76.18;;;25.90;;
78368;SDS011;71113;43.092;-89.268;2024-03-02T02:53:20;74.57;;;25.33;;
78368;SDS011;71113;43.092;-89.268;2024-03-02T02:55:46;97.38;;;40.58;;
78368;SDS011;71113;43.092;-89.268;2024-03-02T02:58:12;502.60;;;212.68;;
78368;SDS011;71113;43.092;-89.268;2024-03-02T03:00:39;474.88;;;172.73;;
78368;SDS011;71113;43.092;-89.268;2024-03-02T03:03:06;324.08;;;113.85;;
78368;SDS011;71113;43.092;-89.268;2024-03-02T03:05:32;263.95;;;90.40;;
78368;SDS011;71113;43.092;-89.268;2024-03-02T03:07:58;231.65;;;80.55;;
78368;SDS011;71113;43.092;-89.268;2024-03-02T03:10:24;337.83;;;99.35;;
78368;SDS011;71113;43.092;-89.268;2024-03-02T03:12:52;202.77;;;74.65;;
78368;SDS011;71113;43.092;-89.268;2024-03-02T03:15:18;249.30;;;81.88;;
78368;SDS011;71113;43.092;-89.268;2024-03-02T03:17:44;216.82;;;76.05;;
78368;SDS011;71113;43.092;-89.268;2024-03-02T03:20:12;222.93;;;78.15;;
78368;SDS011;71113;43.092;-89.268;2024-03-02T03:22:39;229.98;;;73.47;;
78368;SDS011;71113;43.092;-89.268;2024-03-02T03:25:05;198.60;;;66.63;;
78368;SDS011;71113;43.092;-89.268;2024-03-02T03:27:33;202.93;;;65.45;;
78368;SDS011;71113;43.092;-89.268;2024-03-02T03:29:59;198.02;;;61.90;;
78368;SDS011;71113;43.092;-89.268;2024-03-02T03:32:25;199.65;;;63.47;;
78368;SDS011;71113;43.092;-89.268;2024-03-02T03:34:51;200.07;;;62.63;;
78368;SDS011;71113;43.092;-89.268;2024-03-02T03:37:17;200.23;;;63.58;;
78368;SDS011;71113;43.092;-89.268;2024-03-02T03:39:43;202.65;;;60.28;;
78368;SDS011;71113;43.092;-89.268;2024-03-02T03:42:09;191.63;;;59.42;;
78368;SDS011;71113;43.092;-89.268;2024-03-02T03:44:35;200.02;;;61.97;;
78368;SDS011;71113;43.092;-89.268;2024-03-02T03:47:01;183.23;;;57.45;;
78368;SDS011;71113;43.092;-89.268;2024-03-02T03:49:27;180.70;;;58.30;;
78368;SDS011;71113;43.092;-89.268;2024-03-02T03:51:53;182.73;;;57.05;;
78368;SDS011;71113;43.092;-89.268;2024-03-02T03:54:20;175.13;;;57.53;;
78368;SDS011;71113;43.092;-89.268;2024-03-02T03:56:46;168.35;;;54.55;;
78368;SDS011;71113;43.092;-89.268;2024-03-02T03:59:11;177.18;;;54.00;;
78368;SDS011;71113;43.092;-89.268;2024-03-02T04:01:38;182.25;;;53.80;;
78368;SDS011;71113;43.092;-89.268;2024-03-02T04:04:04;168.02;;;51.05;;
78368;SDS011;71113;43.092;-89.268;2024-03-02T04:06:30;157.75;;;48.95;;
78368;SDS011;71113;43.092;-89.268;2024-03-02T04:08:56;156.48;;;50.15;;
78368;SDS011;71113;43.092;-89.268;2024-03-02T04:11:22;157.32;;;48.33;;
78368;SDS011;71113;43.092;-89.268;2024-03-02T04:13:48;156.55;;;47.05;;
78368;SDS011;71113;43.092;-89.268;2024-03-02T04:16:14;149.70;;;47.45;;
78368;SDS011;71113;43.092;-89.268;2024-03-02T04:18:40;146.40;;;44.75;;
78368;SDS011;71113;43.092;-89.268;2024-03-02T04:21:06;138.70;;;44.92;;
78368;SDS011;71113;43.092;-89.268;2024-03-02T04:23:32;130.93;;;42.95;;
78368;SDS011;71113;43.092;-89.268;2024-03-02T04:25:58;141.68;;;43.05;;
78368;SDS011;71113;43.092;-89.268;2024-03-02T04:28:25;130.10;;;41.45;;
78368;SDS011;71113;43.092;-89.268;2024-03-02T04:30:50;127.03;;;40.83;;
78368;SDS011;71113;43.092;-89.268;2024-03-02T04:33:16;117.18;;;35.60;;
78368;SDS011;71113;43.092;-89.268;2024-03-02T04:35:42;102.03;;;31.42;;
78368;SDS011;71113;43.092;-89.268;2024-03-02T04:38:08;101.20;;;31.98;;
78368;SDS011;71113;43.092;-89.268;2024-03-02T04:40:34;96.38;;;31.75;;
78368;SDS011;71113;43.092;-89.268;2024-03-02T04:43:00;104.20;;;31.90;;
78368;SDS011;71113;43.092;-89.268;2024-03-02T04:45:26;106.75;;;33.90;;
78368;SDS011;71113;43.092;-89.268;2024-03-02T04:47:52;106.93;;;33.88;;
78368;SDS011;71113;43.092;-89.268;2024-03-02T04:50:19;100.80;;;32.00;;
78368;SDS011;71113;43.092;-89.268;2024-03-02T04:52:45;91.88;;;30.65;;
78368;SDS011;71113;43.092;-89.268;2024-03-02T04:55:11;100.85;;;31.50;;
78368;SDS011;71113;43.092;-89.268;2024-03-02T04:57:55;96.75;;;30.27;;
78368;SDS011;71113;43.092;-89.268;2024-03-02T05:00:21;94.47;;;29.17;;
78368;SDS011;71113;43.092;-89.268;2024-03-02T05:02:47;90.38;;;28.95;;
78368;SDS011;71113;43.092;-89.268;2024-03-02T05:05:13;90.00;;;28.90;;
78368;SDS011;71113;43.092;-89.268;2024-03-02T05:07:42;91.55;;;29.05;;
78368;SDS011;71113;43.092;-89.268;2024-03-02T05:10:09;76.90;;;27.17;;
78368;SDS011;71113;43.092;-89.268;2024-03-02T05:12:35;88.20;;;27.95;;
78368;SDS011;71113;43.092;-89.268;2024-03-02T05:15:11;81.95;;;26.15;;
78368;SDS011;71113;43.092;-89.268;2024-03-02T05:17:40;82.40;;;24.65;;
78368;SDS011;71113;43.092;-89.268;2024-03-02T05:20:08;80.90;;;27.00;;
78368;SDS011;71113;43.092;-89.268;2024-03-02T05:22:35;75.30;;;23.33;;
78368;SDS011;71113;43.092;-89.268;2024-03-02T05:25:01;74.15;;;22.80;;
78368;SDS011;71113;43.092;-89.268;2024-03-02T05:27:28;73.35;;;22.63;;
78368;SDS011;71113;43.092;-89.268;2024-03-02T05:29:54;69.97;;;22.77;;
78368;SDS011;71113;43.092;-89.268;2024-03-02T05:32:20;70.53;;;21.23;;
78368;SDS011;71113;43.092;-89.268;2024-03-02T05:34:46;55.15;;;18.42;;
78368;SDS011;71113;43.092;-89.268;2024-03-02T05:37:12;54.80;;;18.55;;
78368;SDS011;71113;43.092;-89.268;2024-03-02T05:39:38;50.17;;;16.63;;
78368;SDS011;71113;43.092;-89.268;2024-03-02T05:42:04;51.55;;;17.25;;
78368;SDS011;71113;43.092;-89.268;2024-03-02T05:44:31;52.20;;;16.15;;
78368;SDS011;71113;43.092;-89.268;2024-03-02T05:46:57;55.33;;;17.33;;
78368;SDS011;71113;43.092;-89.268;2024-03-02T05:49:23;53.75;;;18.05;;
78368;SDS011;71113;43.092;-89.268;2024-03-02T05:51:49;53.10;;;17.40;;
78368;SDS011;71113;43.092;-89.268;2024-03-02T05:54:14;50.20;;;17.38;;
78368;SDS011;71113;43.092;-89.268;2024-03-02T05:56:40;51.63;;;16.35;;
78368;SDS011;71113;43.092;-89.268;2024-03-02T05:59:06;48.00;;;15.25;;
78368;SDS011;71113;43.092;-89.268;2024-03-02T06:01:45;48.53;;;15.23;;
78368;SDS011;71113;43.092;-89.268;2024-03-02T06:04:12;51.80;;;16.83;;
78368;SDS011;71113;43.092;-89.268;2024-03-02T06:06:39;48.88;;;16.48;;
78368;SDS011;71113;43.092;-89.268;2024-03-02T06:09:08;47.75;;;15.55;;
78368;SDS011;71113;43.092;-89.268;2024-03-02T06:11:37;42.70;;;13.70;;
78368;SDS011;71113;43.092;-89.268;2024-03-02T06:14:04;45.28;;;14.93;;
78368;SDS011;71113;43.092;-89.268;2024-03-02T06:16:31;38.85;;;14.10;;
78368;SDS011;71113;43.092;-89.268;2024-03-02T06:18:58;43.58;;;14.07;;
78368;SDS011;71113;43.092;-89.268;2024-03-02T06:21:24;40.08;;;13.57;;
78368;SDS011;71113;43.092;-89.268;2024-03-02T06:23:50;37.88;;;12.82;;
78368;SDS011;71113;43.092;-89.268;2024-03-02T06:26:17;38.40;;;13.57;;
78368;SDS011;71113;43.092;-89.268;2024-03-02T06:28:43;37.40;;;12.27;;
78368;SDS011;71113;43.092;-89.268;2024-03-02T06:31:10;34.17;;;11.10;;
78368;SDS011;71113;43.092;-89.268;2024-03-02T06:33:36;32.55;;;11.27;;
78368;SDS011;71113;43.092;-89.268;2024-03-02T06:36:02;29.23;;;9.32;;
78368;SDS011;71113;43.092;-89.268;2024-03-02T06:38:28;28.85;;;9.70;;
78368;SDS011;71113;43.092;-89.268;2024-03-02T06:40:54;29.70;;;9.85;;
78368;SDS011;71113;43.092;-89.268;2024-03-02T06:43:23;27.70;;;9.20;;
78368;SDS011;71113;43.092;-89.268;2024-03-02T06:45:52;30.02;;;10.32;;
78368;SDS011;71113;43.092;-89.268;2024-03-02T06:48:18;27.52;;;9.88;;
78368;SDS011;71113;43.092;-89.268;2024-03-02T06:50:47;28.85;;;9.32;;
78368;SDS011;71113;43.092;-89.268;2024-03-02T06:53:13;25.98;;;8.65;;
78368;SDS011;71113;43.092;-89.268;2024-03-02T06:55:43;27.55;;;9.70;;
78368;SDS011;71113;43.092;-89.268;2024-03-02T06:58:10;26.02;;;9.48;;
78368;SDS011;71113;43.092;-89.268;2024-03-02T07:00:37;25.48;;;8.65;;
78368;SDS011;71113;43.092;-89.268;2024-03-02T07:03:03;23.98;;;7.82;;
78368;SDS011;71113;43.092;-89.268;2024-03-02T07:05:29;24.80;;;8.10;;
78368;SDS011;71113;43.092;-89.268;2024-03-02T07:07:55;23.83;;;9.52;;
78368;SDS011;71113;43.092;-89.268;2024-03-02T07:10:21;23.70;;;8.73;;
78368;SDS011;71113;43.092;-89.268;2024-03-02T07:12:48;20.55;;;7.90;;
78368;SDS011;71113;43.092;-89.268;2024-03-02T07:15:13;24.48;;;8.23;;
78368;SDS011;71113;43.092;-89.268;2024-03-02T07:17:51;21.08;;;7.30;;
78368;SDS011;71113;43.092;-89.268;2024-03-02T07:20:17;19.95;;;7.45;;
78368;SDS011;71113;43.092;-89.268;2024-03-02T07:22:43;23.05;;;8.00;;
78368;SDS011;71113;43.092;-89.268;2024-03-02T07:25:09;23.20;;;8.45;;
78368;SDS011;71113;43.092;-89.268;2024-03-02T07:27:35;19.35;;;6.75;;
78368;SDS011;71113;43.092;-89.268;2024-03-02T07:30:02;19.15;;;6.57;;
78368;SDS011;71113;43.092;-89.268;2024-03-02T07:32:28;16.33;;;6.10;;
78368;SDS011;71113;43.092;-89.268;2024-03-02T07:34:54;17.38;;;5.97;;
78368;SDS011;71113;43.092;-89.268;2024-03-02T07:37:21;16.10;;;6.75;;
78368;SDS011;71113;43.092;-89.268;2024-03-02T07:39:48;17.40;;;6.13;;
78368;SDS011;71113;43.092;-89.268;2024-03-02T07:42:14;15.88;;;5.57;;
78368;SDS011;71113;43.092;-89.268;2024-03-02T07:44:40;17.42;;;5.93;;
78368;SDS011;71113;43.092;-89.268;2024-03-02T07:47:06;17.33;;;5.80;;
78368;SDS011;71113;43.092;-89.268;2024-03-02T07:49:33;14.15;;;5.38;;
78368;SDS011;71113;43.092;-89.268;2024-03-02T07:51:59;13.05;;;5.20;;
78368;SDS011;71113;43.092;-89.268;2024-03-02T07:54:25;16.42;;;5.30;;
78368;SDS011;71113;43.092;-89.268;2024-03-02T07:56:51;13.15;;;5.30;;
78368;SDS011;71113;43.092;-89.268;2024-03-02T07:59:17;13.95;;;5.82;;
78368;SDS011;71113;43.092;-89.268;2024-03-02T08:01:43;14.95;;;5.50;;
78368;SDS011;71113;43.092;-89.268;2024-03-02T08:04:09;14.73;;;5.55;;
78368;SDS011;71113;43.092;-89.268;2024-03-02T08:06:35;15.18;;;5.28;;
78368;SDS011;71113;43.092;-89.268;2024-03-02T08:09:01;15.18;;;4.65;;
78368;SDS011;71113;43.092;-89.268;2024-03-02T08:11:27;14.30;;;4.90;;
78368;SDS011;71113;43.092;-89.268;2024-03-02T08:13:54;13.45;;;4.72;;
78368;SDS011;71113;43.092;-89.268;2024-03-02T08:16:20;12.50;;;4.70;;
78368;SDS011;71113;43.092;-89.268;2024-03-02T08:18:48;14.45;;;4.93;;
78368;SDS011;71113;43.092;-89.268;2024-03-02T08:21:15;11.25;;;4.18;;
78368;SDS011;71113;43.092;-89.268;2024-03-02T08:23:42;12.48;;;4.40;;
78368;SDS011;71113;43.092;-89.268;2024-03-02T08:26:08;12.30;;;4.60;;
78368;SDS011;71113;43.092;-89.268;2024-03-02T08:28:35;12.05;;;4.90;;
78368;SDS011;71113;43.092;-89.268;2024-03-02T08:31:02;12.75;;;4.13;;
78368;SDS011;71113;43.092;-89.268;2024-03-02T08:33:29;11.02;;;4.38;;
78368;SDS011;71113;43.092;-89.268;2024-03-02T08:35:55;11.07;;;4.43;;
78368;SDS011;71113;43.092;-89.268;2024-03-02T08:38:22;8.65;;;3.67;;
78368;SDS011;71113;43.092;-89.268;2024-03-02T08:40:48;9.60;;;3.75;;
78368;SDS011;71113;43.092;-89.268;2024-03-02T08:43:15;8.15;;;3.78;;
78368;SDS011;71113;43.092;-89.268;2024-03-02T08:45:41;9.02;;;3.65;;
78368;SDS011;71113;43.092;-89.268;2024-03-02T08:48:07;8.82;;;3.35;;
78368;SDS011;71113;43.092;-89.268;2024-03-02T08:50:34;8.88;;;3.33;;
78368;SDS011;71113;43.092;-89.268;2024-03-02T08:53:00;9.10;;;3.25;;
78368;SDS011;71113;43.092;-89.268;2024-03-02T08:55:26;8.60;;;3.35;;
78368;SDS011;71113;43.092;-89.268;2024-03-02T08:57:52;8.18;;;3.50;;
78368;SDS011;71113;43.092;-89.268;2024-03-02T09:00:19;7.85;;;3.20;;
78368;SDS011;71113;43.092;-89.268;2024-03-02T09:02:45;8.65;;;3.60;;
78368;SDS011;71113;43.092;-89.268;2024-03-02T09:05:11;8.43;;;3.50;;
78368;SDS011;71113;43.092;-89.268;2024-03-02T09:07:37;7.78;;;3.30;;
78368;SDS011;71113;43.092;-89.268;2024-03-02T09:10:07;7.50;;;3.25;;
78368;SDS011;71113;43.092;-89.268;2024-03-02T09:12:34;7.97;;;3.10;;
78368;SDS011;71113;43.092;-89.268;2024-03-02T09:15:01;7.95;;;2.80;;
78368;SDS011;71113;43.092;-89.268;2024-03-02T09:17:28;8.75;;;3.60;;
78368;SDS011;71113;43.092;-89.268;2024-03-02T09:19:55;7.60;;;3.45;;
78368;SDS011;71113;43.092;-89.268;2024-03-02T09:22:21;7.55;;;2.83;;
78368;SDS011;71113;43.092;-89.268;2024-03-02T09:24:48;8.55;;;3.20;;
78368;SDS011;71113;43.092;-89.268;2024-03-02T09:27:14;5.72;;;2.85;;
78368;SDS011;71113;43.092;-89.268;2024-03-02T09:29:40;6.75;;;2.85;;
78368;SDS011;71113;43.092;-89.268;2024-03-02T09:32:07;7.03;;;2.72;;
78368;SDS011;71113;43.092;-89.268;2024-03-02T09:34:33;5.50;;;2.80;;
78368;SDS011;71113;43.092;-89.268;2024-03-02T09:36:59;5.57;;;2.42;;
78368;SDS011;71113;43.092;-89.268;2024-03-02T09:39:25;5.57;;;2.35;;
78368;SDS011;71113;43.092;-89.268;2024-03-02T09:41:51;5.35;;;2.85;;
78368;SDS011;71113;43.092;-89.268;2024-03-02T09:44:18;6.53;;;2.63;;
78368;SDS011;71113;43.092;-89.268;2024-03-02T09:46:48;7.18;;;2.83;;
78368;SDS011;71113;43.092;-89.268;2024-03-02T09:49:14;6.55;;;2.50;;
78368;SDS011;71113;43.092;-89.268;2024-03-02T09:51:40;5.35;;;2.40;;
78368;SDS011;71113;43.092;-89.268;2024-03-02T09:54:10;5.63;;;2.58;;
78368;SDS011;71113;43.092;-89.268;2024-03-02T09:56:36;6.85;;;2.90;;
78368;SDS011;71113;43.092;-89.268;2024-03-02T09:59:02;5.57;;;2.40;;
78368;SDS011;71113;43.092;-89.268;2024-03-02T10:01:27;5.65;;;2.63;;
78368;SDS011;71113;43.092;-89.268;2024-03-02T10:03:53;5.43;;;2.50;;
78368;SDS011;71113;43.092;-89.268;2024-03-02T10:08:52;5.30;;;2.40;;
78368;SDS011;71113;43.092;-89.268;2024-03-02T10:11:26;6.38;;;2.40;;
78368;SDS011;71113;43.092;-89.268;2024-03-02T10:16:36;7.57;;;2.60;;
78368;SDS011;71113;43.092;-89.268;2024-03-02T10:19:19;5.30;;;2.30;;
78368;SDS011;71113;43.092;-89.268;2024-03-02T10:21:46;4.88;;;2.50;;
78368;SDS011;71113;43.092;-89.268;2024-03-02T10:24:14;5.10;;;2.42;;
78368;SDS011;71113;43.092;-89.268;2024-03-02T10:26:41;4.47;;;2.33;;
78368;SDS011;71113;43.092;-89.268;2024-03-02T10:29:08;5.07;;;2.03;;
78368;SDS011;71113;43.092;-89.268;2024-03-02T10:31:38;3.63;;;2.10;;
78368;SDS011;71113;43.092;-89.268;2024-03-02T10:34:05;6.43;;;2.03;;
78368;SDS011;71113;43.092;-89.268;2024-03-02T10:36:33;4.78;;;2.22;;
78368;SDS011;71113;43.092;-89.268;2024-03-02T10:39:06;4.65;;;2.05;;
78368;SDS011;71113;43.092;-89.268;2024-03-02T10:41:33;3.60;;;1.80;;
78368;SDS011;71113;43.092;-89.268;2024-03-02T10:44:05;4.18;;;1.85;;
78368;SDS011;71113;43.092;-89.268;2024-03-02T10:46:32;4.32;;;1.92;;
78368;SDS011;71113;43.092;-89.268;2024-03-02T10:49:00;3.85;;;2.10;;
78368;SDS011;71113;43.092;-89.268;2024-03-02T10:51:28;3.97;;;1.90;;
78368;SDS011;71113;43.092;-89.268;2024-03-02T10:54:00;3.38;;;1.98;;
78368;SDS011;71113;43.092;-89.268;2024-03-02T10:56:40;3.63;;;2.00;;
78368;SDS011;71113;43.092;-89.268;2024-03-02T10:59:24;5.03;;;2.20;;
78368;SDS011;71113;43.092;-89.268;2024-03-02T11:02:03;4.55;;;2.13;;
78368;SDS011;71113;43.092;-89.268;2024-03-02T11:04:30;3.75;;;1.95;;
78368;SDS011;71113;43.092;-89.268;2024-03-02T11:07:17;4.10;;;2.22;;
78368;SDS011;71113;43.092;-89.268;2024-03-02T11:09:59;4.47;;;2.10;;
78368;SDS011;71113;43.092;-89.268;2024-03-02T11:12:41;4.55;;;2.30;;
78368;SDS011;71113;43.092;-89.268;2024-03-02T11:15:20;3.15;;;1.73;;
78368;SDS011;71113;43.092;-89.268;2024-03-02T11:17:51;4.68;;;2.05;;
78368;SDS011;71113;43.092;-89.268;2024-03-02T11:20:18;4.97;;;2.13;;
78368;SDS011;71113;43.092;-89.268;2024-03-02T11:22:45;4.05;;;2.10;;
78368;SDS011;71113;43.092;-89.268;2024-03-02T11:25:24;3.92;;;1.90;;
78368;SDS011;71113;43.092;-89.268;2024-03-02T11:28:01;3.60;;;1.98;;
78368;SDS011;71113;43.092;-89.268;2024-03-02T11:33:06;3.92;;;1.95;;
78368;SDS011;71113;43.092;-89.268;2024-03-02T11:35:36;4.60;;;2.15;;
78368;SDS011;71113;43.092;-89.268;2024-03-02T11:38:06;2.80;;;1.83;;
78368;SDS011;71113;43.092;-89.268;2024-03-02T11:40:32;2.92;;;1.63;;
78368;SDS011;71113;43.092;-89.268;2024-03-02T11:43:01;2.95;;;1.70;;
78368;SDS011;71113;43.092;-89.268;2024-03-02T11:45:27;2.60;;;1.48;;
78368;SDS011;71113;43.092;-89.268;2024-03-02T11:47:54;2.80;;;1.45;;
78368;SDS011;71113;43.092;-89.268;2024-03-02T11:53:05;2.17;;;1.35;;
78368;SDS011;71113;43.092;-89.268;2024-03-02T11:55:36;2.08;;;1.30;;
78368;SDS011;71113;43.092;-89.268;2024-03-02T11:58:05;2.80;;;1.60;;
78368;SDS011;71113;43.092;-89.268;2024-03-02T12:00:32;2.42;;;1.48;;
78368;SDS011;71113;43.092;-89.268;2024-03-02T12:03:02;2.65;;;1.30;;
78368;SDS011;71113;43.092;-89.268;2024-03-02T12:05:29;2.45;;;1.30;;
78368;SDS011;71113;43.092;-89.268;2024-03-02T12:07:56;2.92;;;1.98;;
78368;SDS011;71113;43.092;-89.268;2024-03-02T12:10:26;3.00;;;1.50;;
78368;SDS011;71113;43.092;-89.268;2024-03-02T12:12:56;3.40;;;1.70;;
78368;SDS011;71113;43.092;-89.268;2024-03-02T12:15:30;2.03;;;1.38;;
78368;SDS011;71113;43.092;-89.268;2024-03-02T12:17:57;2.28;;;1.40;;
78368;SDS011;71113;43.092;-89.268;2024-03-02T12:20:25;2.08;;;1.20;;
78368;SDS011;71113;43.092;-89.268;2024-03-02T12:22:53;2.60;;;1.30;;
78368;SDS011;71113;43.092;-89.268;2024-03-02T12:25:20;2.38;;;1.30;;
78368;SDS011;71113;43.092;-89.268;2024-03-02T12:27:49;1.95;;;1.30;;
78368;SDS011;71113;43.092;-89.268;2024-03-02T12:30:16;2.33;;;1.50;;
78368;SDS011;71113;43.092;-89.268;2024-03-02T12:32:43;2.60;;;1.50;;
78368;SDS011;71113;43.092;-89.268;2024-03-02T12:35:12;2.28;;;1.40;;
78368;SDS011;71113;43.092;-89.268;2024-03-02T12:37:42;2.47;;;1.50;;
78368;SDS011;71113;43.092;-89.268;2024-03-02T12:40:09;3.28;;;1.50;;
78368;SDS011;71113;43.092;-89.268;2024-03-02T12:42:36;2.80;;;1.50;;
78368;SDS011;71113;43.092;-89.268;2024-03-02T12:45:03;2.65;;;1.60;;
78368;SDS011;71113;43.092;-89.268;2024-03-02T12:47:29;2.38;;;1.48;;
78368;SDS011;71113;43.092;-89.268;2024-03-02T12:49:55;2.38;;;1.52;;
78368;SDS011;71113;43.092;-89.268;2024-03-02T12:52:22;2.28;;;1.58;;
78368;SDS011;71113;43.092;-89.268;2024-03-02T12:54:48;2.03;;;1.27;;
78368;SDS011;71113;43.092;-89.268;2024-03-02T12:57:18;2.13;;;1.33;;
78368;SDS011;71113;43.092;-89.268;2024-03-02T12:59:47;2.20;;;1.38;;
78368;SDS011;71113;43.092;-89.268;2024-03-02T13:02:17;2.38;;;1.40;;
78368;SDS011;71113;43.092;-89.268;2024-03-02T13:04:43;2.42;;;1.38;;
78368;SDS011;71113;43.092;-89.268;2024-03-02T13:07:10;1.85;;;1.27;;
78368;SDS011;71113;43.092;-89.268;2024-03-02T13:09:39;1.88;;;1.30;;
78368;SDS011;71113;43.092;-89.268;2024-03-02T13:12:05;1.52;;;1.02;;
78368;SDS011;71113;43.092;-89.268;2024-03-02T13:14:35;2.20;;;1.30;;
78368;SDS011;71113;43.092;-89.268;2024-03-02T13:17:01;1.48;;;1.00;;
78368;SDS011;71113;43.092;-89.268;2024-03-02T13:19:30;2.35;;;1.40;;
78368;SDS011;71113;43.092;-89.268;2024-03-02T13:21:57;1.92;;;1.20;;
78368;SDS011;71113;43.092;-89.268;2024-03-02T13:24:23;2.33;;;1.10;;
78368;SDS011;71113;43.092;-89.268;2024-03-02T13:27:08;3.33;;;1.50;;
78368;SDS011;71113;43.092;-89.268;2024-03-02T13:29:34;2.08;;;1.27;;
78368;SDS011;71113;43.092;-89.268;2024-03-02T13:32:00;2.47;;;1.35;;
78368;SDS011;71113;43.092;-89.268;2024-03-02T13:34:26;1.58;;;1.15;;
78368;SDS011;71113;43.092;-89.268;2024-03-02T13:36:51;1.50;;;1.08;;
78368;SDS011;71113;43.092;-89.268;2024-03-02T13:39:19;2.28;;;1.40;;
78368;SDS011;71113;43.092;-89.268;2024-03-02T13:41:44;1.98;;;1.35;;
78368;SDS011;71113;43.092;-89.268;2024-03-02T13:44:18;2.03;;;1.10;;
78368;SDS011;71113;43.092;-89.268;2024-03-02T13:46:47;1.83;;;1.13;;
78368;SDS011;71113;43.092;-89.268;2024-03-02T13:49:13;4.20;;;1.20;;
78368;SDS011;71113;43.092;-89.268;2024-03-02T13:51:39;2.60;;;1.40;;
78368;SDS011;71113;43.092;-89.268;2024-03-02T13:54:05;3.95;;;1.30;;
78368;SDS011;71113;43.092;-89.268;2024-03-02T13:56:31;2.15;;;1.25;;
78368;SDS011;71113;43.092;-89.268;2024-03-02T13:58:58;2.75;;;1.27;;
78368;SDS011;71113;43.092;-89.268;2024-03-02T14:01:24;7.53;;;1.23;;
78368;SDS011;71113;43.092;-89.268;2024-03-02T14:03:50;506.70;;;288.95;;
78368;SDS011;71113;43.092;-89.268;2024-03-02T14:06:17;478.08;;;199.13;;
78368;SDS011;71113;43.092;-89.268;2024-03-02T14:08:43;269.60;;;116.35;;
78368;SDS011;71113;43.092;-89.268;2024-03-02T14:11:10;261.70;;;111.47;;
78368;SDS011;71113;43.092;-89.268;2024-03-02T14:13:40;289.80;;;108.38;;
78368;SDS011;71113;43.092;-89.268;2024-03-02T14:16:06;248.25;;;104.60;;
78368;SDS011;71113;43.092;-89.268;2024-03-02T14:18:34;266.67;;;98.70;;
78368;SDS011;71113;43.092;-89.268;2024-03-02T14:20:59;474.05;;;214.30;;